createdAt,value
2017-03-16T00:00:28.129Z,19.77
2017-03-16T00:01:20.252Z,19.26
2017-03-16T00:02:27.059Z,19.21
2017-03-16T00:03:33.190Z,19.19
2017-03-16T00:04:22.951Z,19.18
2017-03-16T00:05:37.582Z,19.18
2017-03-16T00:06:27.080Z,19.18
2017-03-16T00:07:29.717Z,19.18
2017-03-16T00:08:33.376Z,19.17
2017-03-16T00:09:20.510Z,19.17
2017-03-16T00:10:20.894Z,19.17
2017-03-16T00:11:20.019Z,19.17
2017-03-16T00:12:21.356Z,19.17
2017-03-16T00:13:20.750Z,19.16
2017-03-16T00:14:26.939Z,19.16
2017-03-16T00:15:22.812Z,19.17
2017-03-16T00:16:25.789Z,19.17
2017-03-16T00:17:21.518Z,19.24
2017-03-16T00:18:19.764Z,19.16
2017-03-16T00:19:27.350Z,19.70
2017-03-16T00:20:17.484Z,19.76
2017-03-16T00:21:24.822Z,19.80
2017-03-16T00:22:26.119Z,19.81
2017-03-16T00:23:36.591Z,19.81
2017-03-16T00:24:29.636Z,19.82
2017-03-16T00:25:39.212Z,19.84
2017-03-16T00:26:23.405Z,19.83
2017-03-16T00:27:37.563Z,19.82
2017-03-16T00:28:30.408Z,19.84
2017-03-16T00:29:22.051Z,19.82
2017-03-16T00:30:23.518Z,19.84
2017-03-16T00:31:26.974Z,19.84
2017-03-16T00:32:24.472Z,19.83
2017-03-16T00:33:16.903Z,19.84
2017-03-16T00:34:22.952Z,19.84
2017-03-16T00:35:22.234Z,19.84
2017-03-16T00:36:27.913Z,19.85
2017-03-16T00:37:22.799Z,19.85
2017-03-16T00:38:25.662Z,19.30
2017-03-16T00:39:33.923Z,19.25
2017-03-16T00:40:23.097Z,19.22
2017-03-16T00:41:23.822Z,19.20
2017-03-16T00:42:32.758Z,19.20
2017-03-16T00:43:23.018Z,19.21
2017-03-16T00:44:27.123Z,19.71
2017-03-16T00:45:22.827Z,19.77
2017-03-16T00:46:27.592Z,19.80
2017-03-16T00:47:27.553Z,19.81
2017-03-16T00:48:31.304Z,19.82
2017-03-16T00:49:32.992Z,19.83
2017-03-16T00:50:33.064Z,19.46
2017-03-16T00:51:29.057Z,19.29
2017-03-16T00:52:31.471Z,19.24
2017-03-16T00:53:29.336Z,19.21
2017-03-16T00:54:32.630Z,19.20
2017-03-16T00:55:30.201Z,19.18
2017-03-16T00:56:20.754Z,19.18
2017-03-16T00:57:26.293Z,19.18
2017-03-16T00:58:16.275Z,19.18
2017-03-16T00:59:22.724Z,19.17
2017-03-16T01:00:18.738Z,19.17
2017-03-16T01:01:27.734Z,19.17
2017-03-16T01:02:33.132Z,19.19
2017-03-16T01:03:29.079Z,19.17
2017-03-16T01:04:23.375Z,19.17
2017-03-16T01:05:32.341Z,19.17
2017-03-16T01:06:36.767Z,19.16
2017-03-16T01:07:31.628Z,19.22
2017-03-16T01:08:22.996Z,19.17
2017-03-16T01:09:28.329Z,19.17
2017-03-16T01:10:27.470Z,19.19
2017-03-16T01:11:30.902Z,19.17
2017-03-16T01:12:29.680Z,19.17
2017-03-16T01:13:27.017Z,19.16
2017-03-16T01:14:27.333Z,19.16
2017-03-16T01:15:28.271Z,19.17
2017-03-16T01:16:24.077Z,19.16
2017-03-16T01:17:21.049Z,19.16
2017-03-16T01:18:20.689Z,19.17
2017-03-16T01:19:37.059Z,19.16
2017-03-16T01:20:32.901Z,19.17
2017-03-16T01:21:46.645Z,19.17
2017-03-16T01:22:32.622Z,19.20
2017-03-16T01:23:29.656Z,19.17
2017-03-16T01:24:23.522Z,19.17
2017-03-16T01:25:23.325Z,19.17
2017-03-16T01:26:20.204Z,19.17
2017-03-16T01:27:28.665Z,19.17
2017-03-16T01:28:27.136Z,19.17
2017-03-16T01:29:15.460Z,19.16
2017-03-16T01:30:28.585Z,19.17
2017-03-16T01:31:34.201Z,19.16
2017-03-16T01:32:25.630Z,19.17
2017-03-16T01:33:17.035Z,19.17
2017-03-16T01:34:23.289Z,19.17
2017-03-16T01:35:18.074Z,19.19
2017-03-16T01:36:28.628Z,19.17
2017-03-16T01:37:27.681Z,19.17
2017-03-16T01:38:37.448Z,19.17
2017-03-16T01:39:25.256Z,19.70
2017-03-16T01:40:21.898Z,19.78
2017-03-16T01:41:23.751Z,19.81
2017-03-16T01:42:32.768Z,19.82
2017-03-16T01:43:42.709Z,19.82
2017-03-16T01:44:17.689Z,19.84
2017-03-16T01:45:28.030Z,19.84
2017-03-16T01:46:16.387Z,19.84
2017-03-16T01:47:33.516Z,19.85
2017-03-16T01:48:31.928Z,19.85
2017-03-16T01:49:27.120Z,19.85
2017-03-16T01:50:25.997Z,19.86
2017-03-16T01:51:22.697Z,19.85
2017-03-16T01:52:15.707Z,19.86
2017-03-16T01:53:22.355Z,19.85
2017-03-16T01:54:28.414Z,19.86
2017-03-16T01:55:27.240Z,19.48
2017-03-16T01:56:27.523Z,19.32
2017-03-16T01:57:25.404Z,19.26
2017-03-16T01:58:28.375Z,19.23
2017-03-16T01:59:18.863Z,19.22
2017-03-16T02:00:28.907Z,19.21
2017-03-16T02:01:21.720Z,19.20
2017-03-16T02:02:23.283Z,19.20
2017-03-16T02:03:22.228Z,19.20
2017-03-16T02:04:32.288Z,19.19
2017-03-16T02:05:21.655Z,19.19
2017-03-16T02:06:28.194Z,19.22
2017-03-16T02:07:21.717Z,19.19
2017-03-16T02:08:26.934Z,19.18
2017-03-16T02:09:28.256Z,19.19
2017-03-16T02:10:34.386Z,19.18
2017-03-16T02:11:21.512Z,19.18
2017-03-16T02:12:20.922Z,19.18
2017-03-16T02:13:27.204Z,19.17
2017-03-16T02:14:14.878Z,19.18
2017-03-16T02:15:28.157Z,19.19
2017-03-16T02:16:23.699Z,19.18
2017-03-16T02:17:27.121Z,19.18
2017-03-16T02:18:32.637Z,19.18
2017-03-16T02:19:30.417Z,19.18
2017-03-16T02:20:27.761Z,19.18
2017-03-16T02:21:23.171Z,19.18
2017-03-16T02:22:26.553Z,19.18
2017-03-16T02:23:23.700Z,19.18
2017-03-16T02:24:26.069Z,19.20
2017-03-16T02:25:19.663Z,19.18
2017-03-16T02:26:27.700Z,19.18
2017-03-16T02:27:16.608Z,19.18
2017-03-16T02:28:27.653Z,19.18
2017-03-16T02:29:27.033Z,19.19
2017-03-16T02:30:33.433Z,19.18
2017-03-16T02:31:37.751Z,19.20
2017-03-16T02:32:22.689Z,19.18
2017-03-16T02:33:27.262Z,19.23
2017-03-16T02:34:31.780Z,19.21
2017-03-16T02:35:33.091Z,19.72
2017-03-16T02:36:36.753Z,19.77
2017-03-16T02:37:32.620Z,19.80
2017-03-16T02:38:28.191Z,19.32
2017-03-16T02:39:27.671Z,19.24
2017-03-16T02:40:20.694Z,19.24
2017-03-16T02:41:36.651Z,19.20
2017-03-16T02:42:27.482Z,19.19
2017-03-16T02:43:21.336Z,19.21
2017-03-16T02:44:26.227Z,19.19
2017-03-16T02:45:20.839Z,19.18
2017-03-16T02:46:21.743Z,19.20
2017-03-16T02:47:27.404Z,19.19
2017-03-16T02:48:21.481Z,19.18
2017-03-16T02:49:26.764Z,19.18
2017-03-16T02:50:28.349Z,19.18
2017-03-16T02:51:32.794Z,19.18
2017-03-16T02:52:20.643Z,19.18
2017-03-16T02:53:26.776Z,19.18
2017-03-16T02:54:33.111Z,19.18
2017-03-16T02:55:35.213Z,19.18
2017-03-16T02:56:26.108Z,19.18
2017-03-16T02:57:31.942Z,19.18
2017-03-16T02:58:33.072Z,19.17
2017-03-16T02:59:34.396Z,19.18
2017-03-16T03:00:41.731Z,19.17
2017-03-16T03:01:34.452Z,19.18
2017-03-16T03:02:32.564Z,19.17
2017-03-16T03:03:37.948Z,19.17
2017-03-16T03:04:24.358Z,19.17
2017-03-16T03:05:22.790Z,19.17
2017-03-16T03:06:29.281Z,19.18
2017-03-16T03:07:27.975Z,19.17
2017-03-16T03:08:26.742Z,19.17
2017-03-16T03:09:26.560Z,19.18
2017-03-16T03:10:20.202Z,19.17
2017-03-16T03:11:28.082Z,19.17
2017-03-16T03:12:27.694Z,19.18
2017-03-16T03:13:28.317Z,19.18
2017-03-16T03:14:27.234Z,19.18
2017-03-16T03:15:27.342Z,19.17
2017-03-16T03:16:22.439Z,19.18
2017-03-16T03:17:22.410Z,19.17
2017-03-16T03:18:23.064Z,19.17
2017-03-16T03:19:25.821Z,19.18
2017-03-16T03:20:22.323Z,19.17
2017-03-16T03:21:21.948Z,19.19
2017-03-16T03:22:22.542Z,19.17
2017-03-16T03:23:32.330Z,19.17
2017-03-16T03:24:27.929Z,19.17
2017-03-16T03:25:19.596Z,19.17
2017-03-16T03:26:28.511Z,19.19
2017-03-16T03:27:30.670Z,19.18
2017-03-16T03:28:21.161Z,19.17
2017-03-16T03:29:25.893Z,19.17
2017-03-16T03:30:22.186Z,19.17
2017-03-16T03:31:22.916Z,19.17
2017-03-16T03:32:24.664Z,19.21
2017-03-16T03:33:28.257Z,19.19
2017-03-16T03:34:27.688Z,19.17
2017-03-16T03:35:28.020Z,19.22
2017-03-16T03:36:32.728Z,19.17
2017-03-16T03:37:25.213Z,19.17
2017-03-16T03:38:26.757Z,19.17
2017-03-16T03:39:16.421Z,19.22
2017-03-16T03:40:21.952Z,19.17
2017-03-16T03:41:26.285Z,19.17
2017-03-16T03:42:21.810Z,19.18
2017-03-16T03:43:28.140Z,19.17
2017-03-16T03:44:23.420Z,19.17
2017-03-16T03:45:33.051Z,19.18
2017-03-16T03:46:32.289Z,19.17
2017-03-16T03:47:24.262Z,19.17
2017-03-16T03:48:23.144Z,19.17
2017-03-16T03:49:27.817Z,19.17
2017-03-16T03:50:32.521Z,19.17
2017-03-16T03:51:36.069Z,19.22
2017-03-16T03:52:24.089Z,19.17
2017-03-16T03:53:23.077Z,19.18
2017-03-16T03:54:23.187Z,19.17
2017-03-16T03:55:27.227Z,19.17
2017-03-16T03:56:26.641Z,19.18
2017-03-16T03:57:23.413Z,19.17
2017-03-16T03:58:27.987Z,19.18
2017-03-16T03:59:32.934Z,19.17
2017-03-16T04:00:19.846Z,19.16
2017-03-16T04:01:22.170Z,19.17
2017-03-16T04:02:27.547Z,19.17
2017-03-16T04:03:33.219Z,19.16
2017-03-16T04:04:43.880Z,19.21
2017-03-16T04:05:31.967Z,19.17
2017-03-16T04:06:23.276Z,19.16
2017-03-16T04:07:22.259Z,19.17
2017-03-16T04:08:33.666Z,19.17
2017-03-16T04:09:31.237Z,19.17
2017-03-16T04:10:27.520Z,19.16
2017-03-16T04:11:22.882Z,19.17
2017-03-16T04:12:33.205Z,19.16
2017-03-16T04:13:24.248Z,19.19
2017-03-16T04:14:20.877Z,19.70
2017-03-16T04:15:25.584Z,19.75
2017-03-16T04:16:26.653Z,19.28
2017-03-16T04:17:26.834Z,19.21
2017-03-16T04:18:35.002Z,19.18
2017-03-16T04:19:27.985Z,19.18
2017-03-16T04:20:28.592Z,19.18
2017-03-16T04:21:27.601Z,19.17
2017-03-16T04:22:27.078Z,19.16
2017-03-16T04:23:21.907Z,19.17
2017-03-16T04:24:27.088Z,19.16
2017-03-16T04:25:20.913Z,19.16
2017-03-16T04:26:25.061Z,19.16
2017-03-16T04:27:32.639Z,19.17
2017-03-16T04:28:26.995Z,19.17
2017-03-16T04:29:13.920Z,19.70
2017-03-16T04:30:22.723Z,19.76
2017-03-16T04:31:19.054Z,19.79
2017-03-16T04:32:17.730Z,19.81
2017-03-16T04:33:36.171Z,19.82
2017-03-16T04:34:27.688Z,19.83
2017-03-16T04:35:26.970Z,19.83
2017-03-16T04:36:25.193Z,19.83
2017-03-16T04:37:21.538Z,19.30
2017-03-16T04:38:24.841Z,19.24
2017-03-16T04:39:30.480Z,19.23
2017-03-16T04:40:23.523Z,19.24
2017-03-16T04:41:33.054Z,19.19
2017-03-16T04:42:27.248Z,19.18
2017-03-16T04:43:27.400Z,19.18
2017-03-16T04:44:33.179Z,19.18
2017-03-16T04:45:25.199Z,19.17
2017-03-16T04:46:25.404Z,19.16
2017-03-16T04:47:20.508Z,19.17
2017-03-16T04:48:23.997Z,19.19
2017-03-16T04:49:32.601Z,19.16
2017-03-16T04:50:21.559Z,19.16
2017-03-16T04:51:20.607Z,19.15
2017-03-16T04:52:20.291Z,19.16
2017-03-16T04:53:24.299Z,19.16
2017-03-16T04:54:28.747Z,19.17
2017-03-16T04:55:20.970Z,19.17
2017-03-16T04:56:32.246Z,19.16
2017-03-16T04:57:28.768Z,19.16
2017-03-16T04:58:20.197Z,19.17
2017-03-16T04:59:16.801Z,19.16
2017-03-16T05:00:27.134Z,19.16
2017-03-16T05:01:39.449Z,19.16
2017-03-16T05:02:23.173Z,19.16
2017-03-16T05:03:30.451Z,19.18
2017-03-16T05:04:28.451Z,19.17
2017-03-16T05:05:27.286Z,19.15
2017-03-16T05:06:25.953Z,19.15
2017-03-16T05:07:28.939Z,19.16
2017-03-16T05:08:22.297Z,19.15
2017-03-16T05:09:32.817Z,19.15
2017-03-16T05:10:22.719Z,19.15
2017-03-16T05:11:32.136Z,19.15
2017-03-16T05:12:23.247Z,19.15
2017-03-16T05:13:25.403Z,19.15
2017-03-16T05:14:25.001Z,19.20
2017-03-16T05:15:32.510Z,19.15
2017-03-16T05:16:27.068Z,19.15
2017-03-16T05:17:27.955Z,19.14
2017-03-16T05:18:24.958Z,19.69
2017-03-16T05:19:29.268Z,19.74
2017-03-16T05:20:36.269Z,19.23
2017-03-16T05:21:27.994Z,19.18
2017-03-16T05:22:26.153Z,19.16
2017-03-16T05:23:31.677Z,19.15
2017-03-16T05:24:31.835Z,19.15
2017-03-16T05:25:31.384Z,19.14
2017-03-16T05:26:23.143Z,19.14
2017-03-16T05:27:20.063Z,19.14
2017-03-16T05:28:27.255Z,19.13
2017-03-16T05:29:32.983Z,19.13
2017-03-16T05:30:19.825Z,19.13
2017-03-16T05:31:35.929Z,19.12
2017-03-16T05:32:28.503Z,19.13
2017-03-16T05:33:38.109Z,19.13
2017-03-16T05:34:46.143Z,19.13
2017-03-16T05:35:40.619Z,19.13
2017-03-16T05:36:33.641Z,19.13
2017-03-16T05:37:27.069Z,19.12
2017-03-16T05:38:28.062Z,19.12
2017-03-16T05:39:28.111Z,19.12
2017-03-16T05:40:37.380Z,19.17
2017-03-16T05:41:29.909Z,19.12
2017-03-16T05:42:27.050Z,19.12
2017-03-16T05:43:21.109Z,19.12
2017-03-16T05:44:26.246Z,19.12
2017-03-16T05:45:26.738Z,19.12
2017-03-16T05:46:20.468Z,19.12
2017-03-16T05:47:27.679Z,19.12
2017-03-16T05:48:33.908Z,19.12
2017-03-16T05:49:32.353Z,19.12
2017-03-16T05:50:33.670Z,19.12
2017-03-16T05:51:37.088Z,19.11
2017-03-16T05:52:25.447Z,19.11
2017-03-16T05:53:34.439Z,19.12
2017-03-16T05:54:28.573Z,19.11
2017-03-16T05:55:28.639Z,19.11
2017-03-16T05:56:21.827Z,19.11
2017-03-16T05:57:34.693Z,19.12
2017-03-16T05:58:34.848Z,19.12
2017-03-16T05:59:33.651Z,19.11
2017-03-16T06:00:33.518Z,19.12
2017-03-16T06:01:27.101Z,19.11
2017-03-16T06:02:31.851Z,19.12
2017-03-16T06:03:37.446Z,19.10
2017-03-16T06:04:26.778Z,19.10
2017-03-16T06:05:22.918Z,19.64
2017-03-16T06:06:32.191Z,19.71
2017-03-16T06:07:27.033Z,19.75
2017-03-16T06:08:33.121Z,19.69
2017-03-16T06:09:33.497Z,19.76
2017-03-16T06:10:32.717Z,19.23
2017-03-16T06:11:34.472Z,19.18
2017-03-16T06:12:21.330Z,19.15
2017-03-16T06:13:31.966Z,19.16
2017-03-16T06:14:31.121Z,19.13
2017-03-16T06:15:25.641Z,19.12
2017-03-16T06:16:31.135Z,19.13
2017-03-16T06:17:21.768Z,19.12
2017-03-16T06:18:34.491Z,19.12
2017-03-16T06:19:23.021Z,19.12
2017-03-16T06:20:26.293Z,19.12
2017-03-16T06:21:34.487Z,19.12
2017-03-16T06:22:31.784Z,19.12
2017-03-16T06:23:27.615Z,19.17
2017-03-16T06:24:24.388Z,19.12
2017-03-16T06:25:31.057Z,19.12
2017-03-16T06:26:27.056Z,19.14
2017-03-16T06:27:26.749Z,19.64
2017-03-16T06:28:29.127Z,19.71
2017-03-16T06:29:18.069Z,19.73
2017-03-16T06:30:28.832Z,19.22
2017-03-16T06:31:28.024Z,19.18
2017-03-16T06:32:27.063Z,19.20
2017-03-16T06:33:20.707Z,19.14
2017-03-16T06:34:34.011Z,19.13
2017-03-16T06:37:03.901Z,19.13
2017-03-16T06:37:32.784Z,19.13
2017-03-16T06:38:25.521Z,19.13
2017-03-16T06:39:26.822Z,19.13
2017-03-16T06:40:30.885Z,19.12
2017-03-16T06:41:26.846Z,19.14
2017-03-16T06:42:27.489Z,19.16
2017-03-16T06:43:23.025Z,19.13
2017-03-16T06:44:33.035Z,19.66
2017-03-16T06:45:27.354Z,19.55
2017-03-16T06:46:28.454Z,19.23
2017-03-16T06:47:32.712Z,19.18
2017-03-16T06:48:17.293Z,19.16
2017-03-16T06:49:27.134Z,19.15
2017-03-16T06:50:38.543Z,19.15
2017-03-16T06:51:33.446Z,19.15
2017-03-16T06:52:38.564Z,19.14
2017-03-16T06:53:49.429Z,19.16
2017-03-16T06:54:36.396Z,19.15
2017-03-16T06:55:45.444Z,19.18
2017-03-16T06:56:39.303Z,19.19
2017-03-16T06:57:39.566Z,19.18
2017-03-16T06:58:39.031Z,19.17
2017-03-16T06:59:35.717Z,19.16
2017-03-16T07:00:39.801Z,19.15
2017-03-16T07:01:36.134Z,19.13
2017-03-16T07:02:37.528Z,19.10
2017-03-16T07:03:39.222Z,19.07
2017-03-16T07:04:43.211Z,19.06
2017-03-16T07:05:38.833Z,19.34
2017-03-16T07:06:40.416Z,19.85
2017-03-16T07:07:34.141Z,20.81
2017-03-16T07:08:33.460Z,21.16
2017-03-16T07:09:34.951Z,21.31
2017-03-16T07:10:36.982Z,21.51
2017-03-16T07:11:38.469Z,21.33
2017-03-16T07:12:31.742Z,21.09
2017-03-16T07:13:33.075Z,20.83
2017-03-16T07:14:46.455Z,20.60
2017-03-16T07:15:49.544Z,20.95
2017-03-16T07:16:32.904Z,20.54
2017-03-16T07:17:34.201Z,20.23
2017-03-16T07:18:32.899Z,20.08
2017-03-16T07:19:50.693Z,19.97
2017-03-16T07:20:34.862Z,19.89
2017-03-16T07:21:51.332Z,19.82
2017-03-16T07:22:43.633Z,19.75
2017-03-16T07:23:34.151Z,19.70
2017-03-16T07:24:34.147Z,19.67
2017-03-16T07:25:42.837Z,19.64
2017-03-16T07:26:48.968Z,19.60
2017-03-16T07:27:36.988Z,19.57
2017-03-16T07:28:40.038Z,19.56
2017-03-16T07:29:48.569Z,19.54
2017-03-16T07:30:43.531Z,19.51
2017-03-16T07:31:34.140Z,19.49
2017-03-16T07:32:39.015Z,19.48
2017-03-16T07:33:37.725Z,19.46
2017-03-16T07:34:45.901Z,19.45
2017-03-16T07:35:38.532Z,19.48
2017-03-16T07:36:33.432Z,19.43
2017-03-16T07:37:32.912Z,19.40
2017-03-16T07:38:46.203Z,19.39
2017-03-16T07:39:46.715Z,19.39
2017-03-16T07:40:50.936Z,19.39
2017-03-16T07:41:55.274Z,19.38
2017-03-16T07:42:49.756Z,19.37
2017-03-16T07:43:38.587Z,19.36
2017-03-16T07:44:44.084Z,19.36
2017-03-16T07:45:33.171Z,19.39
2017-03-16T07:46:55.329Z,19.90
2017-03-16T07:47:45.137Z,19.95
2017-03-16T07:48:38.110Z,19.44
2017-03-16T07:49:44.424Z,19.39
2017-03-16T07:50:50.195Z,19.37
2017-03-16T07:51:40.668Z,19.35
2017-03-16T07:52:45.030Z,19.34
2017-03-16T07:53:37.306Z,19.36
2017-03-16T07:54:38.686Z,19.34
2017-03-16T07:55:43.666Z,19.34
2017-03-16T07:56:35.865Z,19.34
2017-03-16T07:57:27.674Z,19.33
2017-03-16T07:58:37.615Z,19.86
2017-03-16T07:59:32.602Z,19.92
2017-03-16T08:00:34.151Z,19.95
2017-03-16T08:01:35.367Z,19.96
2017-03-16T08:02:46.229Z,19.97
2017-03-16T08:03:44.322Z,19.98
2017-03-16T08:04:52.299Z,19.97
2017-03-16T08:05:46.232Z,19.97
2017-03-16T08:06:38.556Z,19.98
2017-03-16T08:07:45.439Z,19.98
2017-03-16T08:08:38.672Z,19.99
2017-03-16T08:09:38.552Z,19.98
2017-03-16T08:10:34.186Z,19.98
2017-03-16T08:11:34.208Z,19.98
2017-03-16T08:12:34.652Z,19.98
2017-03-16T08:13:44.430Z,19.98
2017-03-16T08:14:43.383Z,19.98
2017-03-16T08:15:36.592Z,19.98
2017-03-16T08:16:32.715Z,19.66
2017-03-16T08:17:44.235Z,19.44
2017-03-16T08:18:38.686Z,19.38
2017-03-16T08:19:37.246Z,19.35
2017-03-16T08:20:41.726Z,19.33
2017-03-16T08:21:38.719Z,19.37
2017-03-16T08:22:45.847Z,19.32
2017-03-16T08:23:39.026Z,19.31
2017-03-16T08:24:49.948Z,19.31
2017-03-16T08:25:49.116Z,19.31
2017-03-16T08:26:43.639Z,19.32
2017-03-16T08:27:44.759Z,19.30
2017-03-16T08:28:45.438Z,19.31
2017-03-16T08:30:00.674Z,19.31
2017-03-16T08:30:43.769Z,19.31
2017-03-16T08:31:43.384Z,19.30
2017-03-16T08:32:35.391Z,19.30
2017-03-16T08:33:42.908Z,19.29
2017-03-16T08:34:34.469Z,19.30
2017-03-16T08:35:43.755Z,19.29
2017-03-16T08:36:34.593Z,19.29
2017-03-16T08:37:46.329Z,19.31
2017-03-16T08:39:22.575Z,19.31
2017-03-16T08:39:48.617Z,19.31
2017-03-16T08:40:57.061Z,19.30
2017-03-16T08:41:40.442Z,19.30
2017-03-16T08:42:36.285Z,19.29
2017-03-16T08:43:43.814Z,19.37
2017-03-16T08:44:44.206Z,19.30
2017-03-16T08:45:39.151Z,19.31
2017-03-16T08:46:34.512Z,19.31
2017-03-16T08:47:45.724Z,19.30
2017-03-16T08:48:35.184Z,19.34
2017-03-16T08:49:39.121Z,19.31
2017-03-16T08:50:45.304Z,19.31
2017-03-16T08:51:46.244Z,19.31
2017-03-16T08:52:44.097Z,19.31
2017-03-16T08:53:42.812Z,19.34
2017-03-16T08:54:36.226Z,19.85
2017-03-16T08:55:32.684Z,19.54
2017-03-16T08:56:38.529Z,19.41
2017-03-16T08:57:46.071Z,19.36
2017-03-16T08:58:46.204Z,19.34
2017-03-16T08:59:36.511Z,19.34
2017-03-16T09:00:51.427Z,19.33
2017-03-16T09:01:45.524Z,19.34
2017-03-16T09:02:42.937Z,19.39
2017-03-16T09:03:38.275Z,19.33
2017-03-16T09:04:47.278Z,19.33
2017-03-16T09:05:38.958Z,19.35
2017-03-16T09:06:36.945Z,19.34
2017-03-16T09:07:39.090Z,19.34
2017-03-16T09:08:39.703Z,19.35
2017-03-16T09:09:48.777Z,19.35
2017-03-16T09:10:37.401Z,19.35
2017-03-16T09:11:37.324Z,19.37
2017-03-16T09:12:44.278Z,19.36
2017-03-16T09:13:34.290Z,19.36
2017-03-16T09:14:39.158Z,19.35
2017-03-16T09:15:44.936Z,19.36
2017-03-16T09:16:32.909Z,19.36
2017-03-16T09:17:34.082Z,19.36
2017-03-16T09:18:34.585Z,19.36
2017-03-16T09:19:40.724Z,19.36
2017-03-16T09:20:34.768Z,19.36
2017-03-16T09:21:43.068Z,19.37
2017-03-16T09:22:37.972Z,19.37
2017-03-16T09:23:48.731Z,19.37
2017-03-16T09:24:22.702Z,19.41
2017-03-16T09:25:35.224Z,19.38
2017-03-16T09:26:49.170Z,19.38
2017-03-16T09:27:52.842Z,19.37
2017-03-16T09:28:44.332Z,19.37
2017-03-16T09:29:33.148Z,19.38
2017-03-16T09:30:34.872Z,19.45
2017-03-16T09:31:38.822Z,19.38
2017-03-16T09:32:44.979Z,19.38
2017-03-16T09:33:47.140Z,19.38
2017-03-16T09:34:36.403Z,19.38
2017-03-16T09:35:34.543Z,19.39
2017-03-16T09:36:43.804Z,19.38
2017-03-16T09:37:41.728Z,19.38
2017-03-16T09:38:44.343Z,19.38
2017-03-16T09:39:34.232Z,19.39
2017-03-16T09:40:37.111Z,19.39
2017-03-16T09:41:33.871Z,19.39
2017-03-16T09:42:49.543Z,19.39
2017-03-16T09:43:43.646Z,19.39
2017-03-16T09:45:05.643Z,19.39
2017-03-16T09:45:34.272Z,19.40
2017-03-16T09:46:45.158Z,19.39
2017-03-16T09:47:44.670Z,19.40
2017-03-16T09:48:43.840Z,19.39
2017-03-16T09:49:36.502Z,19.42
2017-03-16T09:50:34.433Z,19.41
2017-03-16T09:51:47.585Z,19.41
2017-03-16T09:52:28.057Z,19.47
2017-03-16T09:53:38.658Z,19.41
2017-03-16T09:54:44.291Z,19.41
2017-03-16T09:55:35.030Z,19.41
2017-03-16T09:56:39.996Z,19.41
2017-03-16T09:57:34.339Z,19.42
2017-03-16T09:58:46.250Z,19.41
2017-03-16T09:59:43.743Z,19.42
2017-03-16T10:00:36.350Z,19.42
2017-03-16T10:01:28.817Z,19.42
2017-03-16T10:02:42.793Z,19.42
2017-03-16T10:03:44.715Z,19.42
2017-03-16T10:04:49.161Z,19.42
2017-03-16T10:05:37.305Z,19.42
2017-03-16T10:06:44.051Z,19.42
2017-03-16T10:07:35.227Z,19.42
2017-03-16T10:08:51.075Z,19.42
2017-03-16T10:09:34.495Z,19.43
2017-03-16T10:10:43.957Z,19.42
2017-03-16T10:11:34.844Z,19.42
2017-03-16T10:12:43.670Z,19.43
2017-03-16T10:13:35.600Z,19.43
2017-03-16T10:14:37.702Z,19.42
2017-03-16T10:15:38.633Z,19.42
2017-03-16T10:16:45.833Z,19.42
2017-03-16T10:17:47.071Z,19.43
2017-03-16T10:18:41.043Z,19.43
2017-03-16T10:19:36.785Z,19.44
2017-03-16T10:20:34.301Z,19.44
2017-03-16T10:21:33.423Z,19.46
2017-03-16T10:22:48.891Z,19.44
2017-03-16T10:23:45.302Z,19.43
2017-03-16T10:24:53.944Z,19.44
2017-03-16T10:25:33.448Z,19.45
2017-03-16T10:26:39.186Z,19.43
2017-03-16T10:27:34.489Z,19.97
2017-03-16T10:28:33.754Z,19.50
2017-03-16T10:29:40.864Z,19.46
2017-03-16T10:30:35.292Z,19.45
2017-03-16T10:31:44.391Z,19.45
2017-03-16T10:32:39.214Z,19.44
2017-03-16T10:33:44.120Z,19.45
2017-03-16T10:34:53.513Z,19.52
2017-03-16T10:35:42.952Z,19.47
2017-03-16T10:36:32.859Z,19.44
2017-03-16T10:37:38.001Z,19.44
2017-03-16T10:38:43.020Z,19.44
2017-03-16T10:39:43.958Z,19.44
2017-03-16T10:40:37.801Z,19.44
2017-03-16T10:41:46.116Z,19.44
2017-03-16T10:42:35.063Z,19.45
2017-03-16T10:43:40.833Z,19.44
2017-03-16T10:44:39.277Z,19.44
2017-03-16T10:45:46.991Z,19.44
2017-03-16T10:46:31.865Z,19.44
2017-03-16T10:47:34.747Z,19.46
2017-03-16T10:48:33.297Z,19.44
2017-03-16T10:49:42.595Z,19.44
2017-03-16T10:50:34.365Z,19.44
2017-03-16T10:51:37.222Z,19.44
2017-03-16T10:52:40.621Z,19.44
2017-03-16T10:53:35.254Z,19.44
2017-03-16T10:54:57.098Z,19.44
2017-03-16T10:55:40.753Z,19.44
2017-03-16T10:56:43.917Z,19.45
2017-03-16T10:57:47.020Z,19.45
2017-03-16T10:58:46.771Z,19.45
2017-03-16T10:59:55.826Z,19.44
2017-03-16T11:00:33.628Z,19.45
2017-03-16T11:01:36.318Z,19.45
2017-03-16T11:02:37.072Z,19.45
2017-03-16T11:03:38.547Z,19.45
2017-03-16T11:04:54.425Z,19.44
2017-03-16T11:05:34.477Z,19.48
2017-03-16T11:06:43.443Z,19.45
2017-03-16T11:07:49.222Z,19.45
2017-03-16T11:08:43.127Z,19.45
2017-03-16T11:09:32.370Z,19.45
2017-03-16T11:10:38.493Z,19.46
2017-03-16T11:11:38.524Z,19.45
2017-03-16T11:12:33.679Z,19.46
2017-03-16T11:13:43.397Z,19.45
2017-03-16T11:14:49.925Z,19.45
2017-03-16T11:15:44.121Z,19.45
2017-03-16T11:16:39.006Z,19.46
2017-03-16T11:17:50.527Z,19.45
2017-03-16T11:18:39.248Z,19.46
2017-03-16T11:19:44.493Z,19.45
2017-03-16T11:20:45.120Z,19.46
2017-03-16T11:21:53.225Z,19.46
2017-03-16T11:22:57.379Z,19.99
2017-03-16T11:23:45.463Z,20.06
2017-03-16T11:24:39.801Z,20.08
2017-03-16T11:25:44.421Z,20.11
2017-03-16T11:26:35.233Z,20.12
2017-03-16T11:27:34.439Z,20.12
2017-03-16T11:28:46.494Z,20.13
2017-03-16T11:29:58.715Z,20.13
2017-03-16T11:30:36.578Z,20.13
2017-03-16T11:31:33.009Z,20.14
2017-03-16T11:32:33.635Z,20.14
2017-03-16T11:33:33.411Z,20.15
2017-03-16T11:34:38.267Z,20.14
2017-03-16T11:35:49.346Z,20.16
2017-03-16T11:36:43.130Z,20.15
2017-03-16T11:37:38.418Z,20.14
2017-03-16T11:38:34.011Z,20.15
2017-03-16T11:39:43.233Z,20.16
2017-03-16T11:40:39.289Z,20.16
2017-03-16T11:41:35.246Z,19.78
2017-03-16T11:42:34.864Z,19.66
2017-03-16T11:43:36.979Z,19.55
2017-03-16T11:44:38.092Z,19.53
2017-03-16T11:45:27.696Z,19.57
2017-03-16T11:46:34.415Z,19.51
2017-03-16T11:47:33.873Z,19.49
2017-03-16T11:48:36.153Z,19.49
2017-03-16T11:49:44.809Z,19.53
2017-03-16T11:50:34.604Z,19.49
2017-03-16T11:51:34.418Z,19.48
2017-03-16T11:52:43.958Z,19.48
2017-03-16T11:53:34.477Z,19.47
2017-03-16T11:54:31.436Z,19.48
2017-03-16T11:55:32.484Z,19.48
2017-03-16T11:56:36.953Z,19.48
2017-03-16T11:57:38.638Z,19.50
2017-03-16T11:58:38.577Z,19.48
2017-03-16T11:59:48.535Z,19.49
2017-03-16T12:00:32.959Z,19.48
2017-03-16T12:01:39.013Z,19.48
2017-03-16T12:02:34.958Z,19.49
2017-03-16T12:03:24.935Z,19.48
2017-03-16T12:04:38.582Z,19.48
2017-03-16T12:05:44.420Z,19.48
2017-03-16T12:06:37.692Z,19.48
2017-03-16T12:07:39.541Z,19.48
2017-03-16T12:08:18.100Z,19.49
2017-03-16T12:09:37.714Z,19.52
2017-03-16T12:10:33.952Z,19.47
2017-03-16T12:12:02.543Z,19.47
2017-03-16T12:13:00.274Z,19.48
2017-03-16T12:13:38.210Z,19.47
2017-03-16T12:14:34.651Z,20.00
2017-03-16T12:15:34.996Z,19.54
2017-03-16T12:16:43.455Z,19.51
2017-03-16T12:17:34.539Z,19.50
2017-03-16T12:18:50.555Z,19.49
2017-03-16T12:19:57.269Z,19.48
2017-03-16T12:20:43.220Z,19.49
2017-03-16T12:21:35.120Z,19.50
2017-03-16T12:22:39.693Z,19.49
2017-03-16T12:23:38.960Z,19.48
2017-03-16T12:24:47.038Z,19.48
2017-03-16T12:25:34.261Z,19.48
2017-03-16T12:26:49.758Z,19.48
2017-03-16T12:27:38.566Z,19.48
2017-03-16T12:28:32.590Z,19.48
2017-03-16T12:29:38.584Z,19.48
2017-03-16T12:30:34.624Z,19.49
2017-03-16T12:31:39.219Z,19.48
2017-03-16T12:32:44.521Z,19.49
2017-03-16T12:33:34.177Z,19.49
2017-03-16T12:34:44.610Z,19.49
2017-03-16T12:35:50.838Z,19.49
2017-03-16T12:36:34.709Z,19.49
2017-03-16T12:37:34.058Z,19.49
2017-03-16T12:38:50.461Z,19.48
2017-03-16T12:39:40.024Z,19.48
2017-03-16T12:40:34.168Z,19.48
2017-03-16T12:41:33.387Z,19.49
2017-03-16T12:42:34.249Z,19.53
2017-03-16T12:43:44.340Z,19.49
2017-03-16T12:44:38.509Z,19.49
2017-03-16T12:45:45.959Z,19.50
2017-03-16T12:46:33.674Z,19.49
2017-03-16T12:47:33.439Z,19.49
2017-03-16T12:48:43.974Z,19.49
2017-03-16T12:49:46.870Z,19.48
2017-03-16T12:50:33.064Z,19.49
2017-03-16T12:51:38.345Z,19.49
2017-03-16T12:52:38.764Z,19.55
2017-03-16T12:53:43.191Z,19.49